Terminal Aerodrome Forecast
Issued by NWS

Home | Current Version | Previous Version | Text Only | Print | Product List | Glossary On
Versions: 1 2 3 4 5 6 7 8 9 10 11 12
360
FTUS42 TJSJ 281727
TAFJMZ
TAF
TJMZ 281727Z 2818/2918 29007KT P6SM VCSH FEW030 SCT250
      TEMPO 2818/2822 VRB12G18KT 5SM TSRA BKN025CB OVC040
     FM282330 08005KT P6SM FEW030 SCT050 BKN090
     FM291530 27010KT P6SM SCT025 BKN040=

USA.gov is the U.S. government's official web portal to all federal, state and local government web resources and services.